sensor_id;sensor_type;location;lat;lon;timestamp;temperature;humidity
29539;DHT22;16482;51.046;4.498;2022-08-25T00:01:30;27.20;55.50
29539;DHT22;16482;51.046;4.498;2022-08-25T00:03:58;27.10;55.50
29539;DHT22;16482;51.046;4.498;2022-08-25T00:06:25;27.10;55.50
29539;DHT22;16482;51.046;4.498;2022-08-25T00:08:50;27.10;55.50
29539;DHT22;16482;51.046;4.498;2022-08-25T00:11:20;27.10;55.60
29539;DHT22;16482;51.046;4.498;2022-08-25T00:13:51;27.20;55.60
29539;DHT22;16482;51.046;4.498;2022-08-25T00:16:19;27.10;55.60
29539;DHT22;16482;51.046;4.498;2022-08-25T00:18:50;27.20;55.70
29539;DHT22;16482;51.046;4.498;2022-08-25T00:21:16;27.10;55.60
29539;DHT22;16482;51.046;4.498;2022-08-25T00:23:46;27.10;55.60
29539;DHT22;16482;51.046;4.498;2022-08-25T00:26:13;27.20;55.70
29539;DHT22;16482;51.046;4.498;2022-08-25T00:28:41;27.10;55.60
29539;DHT22;16482;51.046;4.498;2022-08-25T00:31:11;27.10;55.70
29539;DHT22;16482;51.046;4.498;2022-08-25T00:33:39;27.10;55.60
29539;DHT22;16482;51.046;4.498;2022-08-25T00:36:05;27.10;55.70
29539;DHT22;16482;51.046;4.498;2022-08-25T00:38:31;27.10;55.70
29539;DHT22;16482;51.046;4.498;2022-08-25T00:40:57;27.10;55.70
29539;DHT22;16482;51.046;4.498;2022-08-25T00:46:11;27.10;55.70
29539;DHT22;16482;51.046;4.498;2022-08-25T00:48:38;27.10;55.70
29539;DHT22;16482;51.046;4.498;2022-08-25T00:51:07;27.10;55.70
29539;DHT22;16482;51.046;4.498;2022-08-25T00:53:35;27.10;55.70
29539;DHT22;16482;51.046;4.498;2022-08-25T00:56:01;27.10;55.70
29539;DHT22;16482;51.046;4.498;2022-08-25T00:58:28;27.10;55.70
29539;DHT22;16482;51.046;4.498;2022-08-25T01:00:57;27.10;55.70
29539;DHT22;16482;51.046;4.498;2022-08-25T01:03:26;27.00;55.70
29539;DHT22;16482;51.046;4.498;2022-08-25T01:05:53;27.10;55.70
29539;DHT22;16482;51.046;4.498;2022-08-25T01:08:22;27.10;55.70
29539;DHT22;16482;51.046;4.498;2022-08-25T01:10:50;27.00;55.70
29539;DHT22;16482;51.046;4.498;2022-08-25T01:13:20;27.00;55.70
29539;DHT22;16482;51.046;4.498;2022-08-25T01:15:49;27.00;55.70
29539;DHT22;16482;51.046;4.498;2022-08-25T01:18:17;27.00;55.70
29539;DHT22;16482;51.046;4.498;2022-08-25T01:20:51;27.00;55.80
29539;DHT22;16482;51.046;4.498;2022-08-25T01:23:18;27.00;55.70
29539;DHT22;16482;51.046;4.498;2022-08-25T01:28:10;27.00;55.70
29539;DHT22;16482;51.046;4.498;2022-08-25T01:30:37;27.00;55.70
29539;DHT22;16482;51.046;4.498;2022-08-25T01:33:20;27.00;55.70
29539;DHT22;16482;51.046;4.498;2022-08-25T01:35:46;27.00;55.60
29539;DHT22;16482;51.046;4.498;2022-08-25T01:38:12;27.00;55.60
29539;DHT22;16482;51.046;4.498;2022-08-25T01:40:40;27.00;55.60
29539;DHT22;16482;51.046;4.498;2022-08-25T01:43:25;27.00;55.60
29539;DHT22;16482;51.046;4.498;2022-08-25T01:45:51;27.00;55.60
29539;DHT22;16482;51.046;4.498;2022-08-25T01:48:17;27.00;55.60
29539;DHT22;16482;51.046;4.498;2022-08-25T01:50:44;27.00;55.60
29539;DHT22;16482;51.046;4.498;2022-08-25T01:53:25;27.00;55.60
29539;DHT22;16482;51.046;4.498;2022-08-25T01:55:51;27.00;55.50
29539;DHT22;16482;51.046;4.498;2022-08-25T01:58:21;27.00;55.50
29539;DHT22;16482;51.046;4.498;2022-08-25T02:00:49;27.00;55.50
29539;DHT22;16482;51.046;4.498;2022-08-25T02:03:16;27.00;55.50
29539;DHT22;16482;51.046;4.498;2022-08-25T02:05:43;26.90;55.40
29539;DHT22;16482;51.046;4.498;2022-08-25T02:08:09;26.90;55.40
29539;DHT22;16482;51.046;4.498;2022-08-25T02:10:36;26.90;55.40
29539;DHT22;16482;51.046;4.498;2022-08-25T02:13:02;26.90;55.40
29539;DHT22;16482;51.046;4.498;2022-08-25T02:15:31;26.90;55.40
29539;DHT22;16482;51.046;4.498;2022-08-25T02:17:57;26.90;55.40
29539;DHT22;16482;51.046;4.498;2022-08-25T02:20:24;26.90;55.40
29539;DHT22;16482;51.046;4.498;2022-08-25T02:22:50;26.80;55.30
29539;DHT22;16482;51.046;4.498;2022-08-25T02:25:18;26.90;55.40
29539;DHT22;16482;51.046;4.498;2022-08-25T02:27:44;26.90;55.30
29539;DHT22;16482;51.046;4.498;2022-08-25T02:30:14;26.90;55.40
29539;DHT22;16482;51.046;4.498;2022-08-25T02:32:40;26.90;55.40
29539;DHT22;16482;51.046;4.498;2022-08-25T02:35:13;26.90;55.40
29539;DHT22;16482;51.046;4.498;2022-08-25T02:37:39;26.90;55.40
29539;DHT22;16482;51.046;4.498;2022-08-25T02:40:05;26.90;55.30
29539;DHT22;16482;51.046;4.498;2022-08-25T02:42:32;26.90;55.30
29539;DHT22;16482;51.046;4.498;2022-08-25T02:44:57;26.90;55.40
29539;DHT22;16482;51.046;4.498;2022-08-25T02:47:23;26.90;55.30
29539;DHT22;16482;51.046;4.498;2022-08-25T02:49:49;26.80;55.20
29539;DHT22;16482;51.046;4.498;2022-08-25T02:52:15;26.80;55.20
29539;DHT22;16482;51.046;4.498;2022-08-25T02:54:41;26.80;55.10
29539;DHT22;16482;51.046;4.498;2022-08-25T02:57:16;26.90;55.10
29539;DHT22;16482;51.046;4.498;2022-08-25T02:59:42;26.80;55.00
29539;DHT22;16482;51.046;4.498;2022-08-25T03:02:13;26.80;54.90
29539;DHT22;16482;51.046;4.498;2022-08-25T03:04:41;26.80;54.90
29539;DHT22;16482;51.046;4.498;2022-08-25T03:07:08;26.80;54.80
29539;DHT22;16482;51.046;4.498;2022-08-25T03:09:34;26.80;54.80
29539;DHT22;16482;51.046;4.498;2022-08-25T03:12:00;26.80;54.70
29539;DHT22;16482;51.046;4.498;2022-08-25T03:14:26;26.70;54.60
29539;DHT22;16482;51.046;4.498;2022-08-25T03:16:52;26.70;54.50
29539;DHT22;16482;51.046;4.498;2022-08-25T03:19:18;26.70;54.30
29539;DHT22;16482;51.046;4.498;2022-08-25T03:21:47;26.70;54.30
29539;DHT22;16482;51.046;4.498;2022-08-25T03:24:15;26.70;54.20
29539;DHT22;16482;51.046;4.498;2022-08-25T03:26:41;26.60;53.90
29539;DHT22;16482;51.046;4.498;2022-08-25T03:29:21;26.70;53.80
29539;DHT22;16482;51.046;4.498;2022-08-25T03:31:48;26.70;53.80
29539;DHT22;16482;51.046;4.498;2022-08-25T03:34:15;26.60;53.60
29539;DHT22;16482;51.046;4.498;2022-08-25T03:36:42;26.60;53.40
29539;DHT22;16482;51.046;4.498;2022-08-25T03:39:10;26.60;53.30
29539;DHT22;16482;51.046;4.498;2022-08-25T03:41:37;26.60;53.30
29539;DHT22;16482;51.046;4.498;2022-08-25T03:44:05;26.60;53.20
29539;DHT22;16482;51.046;4.498;2022-08-25T03:46:36;26.60;53.10
29539;DHT22;16482;51.046;4.498;2022-08-25T03:49:05;26.70;53.20
29539;DHT22;16482;51.046;4.498;2022-08-25T03:51:43;26.60;53.00
29539;DHT22;16482;51.046;4.498;2022-08-25T03:54:10;26.60;52.90
29539;DHT22;16482;51.046;4.498;2022-08-25T03:56:36;26.70;52.80
29539;DHT22;16482;51.046;4.498;2022-08-25T03:59:05;26.60;52.70
29539;DHT22;16482;51.046;4.498;2022-08-25T04:01:37;26.60;52.70
29539;DHT22;16482;51.046;4.498;2022-08-25T04:04:04;26.60;52.50
29539;DHT22;16482;51.046;4.498;2022-08-25T04:06:30;26.60;52.60
29539;DHT22;16482;51.046;4.498;2022-08-25T04:08:56;26.60;52.40
29539;DHT22;16482;51.046;4.498;2022-08-25T04:11:24;26.60;52.40
29539;DHT22;16482;51.046;4.498;2022-08-25T04:13:56;26.60;52.30
29539;DHT22;16482;51.046;4.498;2022-08-25T04:16:25;26.60;52.30
29539;DHT22;16482;51.046;4.498;2022-08-25T04:18:54;26.60;52.30
29539;DHT22;16482;51.046;4.498;2022-08-25T04:21:22;26.60;52.20
29539;DHT22;16482;51.046;4.498;2022-08-25T04:23:53;26.60;52.10
29539;DHT22;16482;51.046;4.498;2022-08-25T04:26:32;26.60;52.10
29539;DHT22;16482;51.046;4.498;2022-08-25T04:28:59;26.60;52.00
29539;DHT22;16482;51.046;4.498;2022-08-25T04:31:27;26.60;52.10
29539;DHT22;16482;51.046;4.498;2022-08-25T04:34:03;26.60;52.00
29539;DHT22;16482;51.046;4.498;2022-08-25T04:36:29;26.60;52.00
29539;DHT22;16482;51.046;4.498;2022-08-25T04:38:55;26.60;51.90
29539;DHT22;16482;51.046;4.498;2022-08-25T04:41:22;26.60;52.00
29539;DHT22;16482;51.046;4.498;2022-08-25T04:43:50;26.60;51.90
29539;DHT22;16482;51.046;4.498;2022-08-25T04:46:21;26.60;51.80
29539;DHT22;16482;51.046;4.498;2022-08-25T04:48:50;26.60;51.70
29539;DHT22;16482;51.046;4.498;2022-08-25T04:51:19;26.60;51.60
29539;DHT22;16482;51.046;4.498;2022-08-25T04:53:45;26.60;51.60
29539;DHT22;16482;51.046;4.498;2022-08-25T04:56:13;26.50;51.50
29539;DHT22;16482;51.046;4.498;2022-08-25T04:58:39;26.50;51.60
29539;DHT22;16482;51.046;4.498;2022-08-25T05:01:15;26.50;51.60
29539;DHT22;16482;51.046;4.498;2022-08-25T05:03:42;26.60;51.70
29539;DHT22;16482;51.046;4.498;2022-08-25T05:06:11;26.60;51.60
29539;DHT22;16482;51.046;4.498;2022-08-25T05:08:37;26.50;51.50
29539;DHT22;16482;51.046;4.498;2022-08-25T05:11:12;26.50;51.50
29539;DHT22;16482;51.046;4.498;2022-08-25T05:13:39;26.50;51.50
29539;DHT22;16482;51.046;4.498;2022-08-25T05:16:06;26.50;51.50
29539;DHT22;16482;51.046;4.498;2022-08-25T05:18:33;26.50;51.50
29539;DHT22;16482;51.046;4.498;2022-08-25T05:21:04;26.50;51.40
29539;DHT22;16482;51.046;4.498;2022-08-25T05:23:30;26.50;51.40
29539;DHT22;16482;51.046;4.498;2022-08-25T05:26:01;26.50;51.50
29539;DHT22;16482;51.046;4.498;2022-08-25T05:28:27;26.50;51.50
29539;DHT22;16482;51.046;4.498;2022-08-25T05:30:58;26.50;51.50
29539;DHT22;16482;51.046;4.498;2022-08-25T05:33:25;26.50;51.50
29539;DHT22;16482;51.046;4.498;2022-08-25T05:35:51;26.50;51.40
29539;DHT22;16482;51.046;4.498;2022-08-25T05:38:17;26.50;51.50
29539;DHT22;16482;51.046;4.498;2022-08-25T05:40:43;26.50;51.40
29539;DHT22;16482;51.046;4.498;2022-08-25T05:43:09;26.50;51.40
29539;DHT22;16482;51.046;4.498;2022-08-25T05:45:44;26.50;51.50
29539;DHT22;16482;51.046;4.498;2022-08-25T05:48:10;26.50;51.50
29539;DHT22;16482;51.046;4.498;2022-08-25T05:50:36;26.50;51.30
29539;DHT22;16482;51.046;4.498;2022-08-25T05:53:02;26.50;51.20
29539;DHT22;16482;51.046;4.498;2022-08-25T05:55:31;26.50;51.30
29539;DHT22;16482;51.046;4.498;2022-08-25T05:57:57;26.50;51.20
29539;DHT22;16482;51.046;4.498;2022-08-25T06:00:23;26.50;51.10
29539;DHT22;16482;51.046;4.498;2022-08-25T06:02:49;26.50;50.90
29539;DHT22;16482;51.046;4.498;2022-08-25T06:05:19;26.50;50.80
29539;DHT22;16482;51.046;4.498;2022-08-25T06:07:47;26.50;50.80
29539;DHT22;16482;51.046;4.498;2022-08-25T06:10:17;26.50;50.70
29539;DHT22;16482;51.046;4.498;2022-08-25T06:12:45;26.50;50.60
29539;DHT22;16482;51.046;4.498;2022-08-25T06:15:16;26.50;50.60
29539;DHT22;16482;51.046;4.498;2022-08-25T06:17:42;26.30;50.40
29539;DHT22;16482;51.046;4.498;2022-08-25T06:20:11;26.20;50.90
29539;DHT22;16482;51.046;4.498;2022-08-25T06:22:37;26.30;50.60
29539;DHT22;16482;51.046;4.498;2022-08-25T06:25:04;26.30;50.50
29539;DHT22;16482;51.046;4.498;2022-08-25T06:27:30;26.30;50.40
29539;DHT22;16482;51.046;4.498;2022-08-25T06:29:56;26.30;50.40
29539;DHT22;16482;51.046;4.498;2022-08-25T06:32:22;26.30;50.40
29539;DHT22;16482;51.046;4.498;2022-08-25T06:34:48;26.20;50.40
29539;DHT22;16482;51.046;4.498;2022-08-25T06:37:14;26.20;50.20
29539;DHT22;16482;51.046;4.498;2022-08-25T06:39:49;26.30;50.10
29539;DHT22;16482;51.046;4.498;2022-08-25T06:42:15;26.30;49.90
29539;DHT22;16482;51.046;4.498;2022-08-25T06:44:41;26.30;49.80
29539;DHT22;16482;51.046;4.498;2022-08-25T06:47:07;26.30;49.60
29539;DHT22;16482;51.046;4.498;2022-08-25T06:49:34;26.30;49.50
29539;DHT22;16482;51.046;4.498;2022-08-25T06:52:00;26.40;49.40
29539;DHT22;16482;51.046;4.498;2022-08-25T06:54:26;26.40;49.30
29539;DHT22;16482;51.046;4.498;2022-08-25T06:56:52;26.40;49.30
29539;DHT22;16482;51.046;4.498;2022-08-25T06:59:18;26.40;49.30
29539;DHT22;16482;51.046;4.498;2022-08-25T07:01:44;26.40;49.20
29539;DHT22;16482;51.046;4.498;2022-08-25T07:04:11;26.40;49.20
29539;DHT22;16482;51.046;4.498;2022-08-25T07:06:36;26.40;49.10
29539;DHT22;16482;51.046;4.498;2022-08-25T07:09:07;26.40;49.00
29539;DHT22;16482;51.046;4.498;2022-08-25T07:11:33;26.50;49.10
29539;DHT22;16482;51.046;4.498;2022-08-25T07:14:00;26.40;49.40
29539;DHT22;16482;51.046;4.498;2022-08-25T07:16:28;26.40;49.30
29539;DHT22;16482;51.046;4.498;2022-08-25T07:18:56;26.40;49.40
29539;DHT22;16482;51.046;4.498;2022-08-25T07:21:27;26.30;49.70
29539;DHT22;16482;51.046;4.498;2022-08-25T07:23:53;26.30;49.50
29539;DHT22;16482;51.046;4.498;2022-08-25T07:26:27;26.40;49.40
29539;DHT22;16482;51.046;4.498;2022-08-25T07:28:54;26.40;49.50
29539;DHT22;16482;51.046;4.498;2022-08-25T07:31:27;26.20;49.40
29539;DHT22;16482;51.046;4.498;2022-08-25T07:33:53;26.00;49.70
29539;DHT22;16482;51.046;4.498;2022-08-25T07:36:37;26.00;49.80
29539;DHT22;16482;51.046;4.498;2022-08-25T07:39:03;26.00;49.90
29539;DHT22;16482;51.046;4.498;2022-08-25T07:41:35;26.10;49.80
29539;DHT22;16482;51.046;4.498;2022-08-25T07:44:02;26.10;49.70
29539;DHT22;16482;51.046;4.498;2022-08-25T07:46:28;26.10;49.60
29539;DHT22;16482;51.046;4.498;2022-08-25T07:48:57;26.10;49.80
29539;DHT22;16482;51.046;4.498;2022-08-25T07:51:23;26.10;49.70
29539;DHT22;16482;51.046;4.498;2022-08-25T07:53:49;26.20;49.70
29539;DHT22;16482;51.046;4.498;2022-08-25T07:56:15;26.20;49.60
29539;DHT22;16482;51.046;4.498;2022-08-25T07:58:42;26.20;49.70
29539;DHT22;16482;51.046;4.498;2022-08-25T08:01:16;26.30;49.60
29539;DHT22;16482;51.046;4.498;2022-08-25T08:03:43;26.40;49.50
29539;DHT22;16482;51.046;4.498;2022-08-25T08:06:14;26.40;49.40
29539;DHT22;16482;51.046;4.498;2022-08-25T08:08:42;26.50;49.30
29539;DHT22;16482;51.046;4.498;2022-08-25T08:11:26;26.50;49.30
29539;DHT22;16482;51.046;4.498;2022-08-25T08:13:56;26.50;49.30
29539;DHT22;16482;51.046;4.498;2022-08-25T08:16:24;26.50;49.40
29539;DHT22;16482;51.046;4.498;2022-08-25T08:18:53;26.50;49.30
29539;DHT22;16482;51.046;4.498;2022-08-25T08:21:25;26.60;49.30
29539;DHT22;16482;51.046;4.498;2022-08-25T08:23:53;26.60;49.30
29539;DHT22;16482;51.046;4.498;2022-08-25T08:26:19;26.60;49.20
29539;DHT22;16482;51.046;4.498;2022-08-25T08:28:45;26.60;49.20
29539;DHT22;16482;51.046;4.498;2022-08-25T08:31:12;26.60;49.10
29539;DHT22;16482;51.046;4.498;2022-08-25T08:33:38;26.60;49.20
29539;DHT22;16482;51.046;4.498;2022-08-25T08:36:09;26.60;49.00
29539;DHT22;16482;51.046;4.498;2022-08-25T08:38:37;26.60;48.90
29539;DHT22;16482;51.046;4.498;2022-08-25T08:46:54;26.70;49.10
29539;DHT22;16482;51.046;4.498;2022-08-25T08:49:47;26.70;49.00
29539;DHT22;16482;51.046;4.498;2022-08-25T08:52:16;26.70;48.80
29539;DHT22;16482;51.046;4.498;2022-08-25T08:54:59;26.70;48.90
29539;DHT22;16482;51.046;4.498;2022-08-25T08:57:27;26.70;48.90
29539;DHT22;16482;51.046;4.498;2022-08-25T09:00:05;26.80;48.90
29539;DHT22;16482;51.046;4.498;2022-08-25T09:02:35;26.80;48.80
29539;DHT22;16482;51.046;4.498;2022-08-25T09:05:08;26.80;48.80
29539;DHT22;16482;51.046;4.498;2022-08-25T09:19:45;26.90;48.70
29539;DHT22;16482;51.046;4.498;2022-08-25T09:25:19;27.00;48.90
29539;DHT22;16482;51.046;4.498;2022-08-25T09:27:52;27.00;49.40
29539;DHT22;16482;51.046;4.498;2022-08-25T09:30:23;27.00;48.60
29539;DHT22;16482;51.046;4.498;2022-08-25T09:32:52;27.00;48.50
29539;DHT22;16482;51.046;4.498;2022-08-25T09:35:31;27.10;48.70
29539;DHT22;16482;51.046;4.498;2022-08-25T09:38:05;27.10;48.50
29539;DHT22;16482;51.046;4.498;2022-08-25T09:40:36;27.10;48.50
29539;DHT22;16482;51.046;4.498;2022-08-25T09:46:05;27.10;48.30
29539;DHT22;16482;51.046;4.498;2022-08-25T09:48:43;27.20;48.20
29539;DHT22;16482;51.046;4.498;2022-08-25T09:51:30;27.20;48.20
29539;DHT22;16482;51.046;4.498;2022-08-25T09:54:03;27.20;48.10
29539;DHT22;16482;51.046;4.498;2022-08-25T09:56:32;27.20;48.10
29539;DHT22;16482;51.046;4.498;2022-08-25T10:01:49;27.20;47.90
29539;DHT22;16482;51.046;4.498;2022-08-25T10:04:28;27.20;47.80
29539;DHT22;16482;51.046;4.498;2022-08-25T10:06:54;27.20;47.80
29539;DHT22;16482;51.046;4.498;2022-08-25T10:09:33;27.20;47.70
29539;DHT22;16482;51.046;4.498;2022-08-25T10:12:13;27.30;47.60
29539;DHT22;16482;51.046;4.498;2022-08-25T10:14:39;27.30;47.60
29539;DHT22;16482;51.046;4.498;2022-08-25T10:17:23;27.30;47.60
29539;DHT22;16482;51.046;4.498;2022-08-25T10:19:51;27.30;47.60
29539;DHT22;16482;51.046;4.498;2022-08-25T10:22:25;27.30;47.20
29539;DHT22;16482;51.046;4.498;2022-08-25T10:24:59;27.30;47.40
29539;DHT22;16482;51.046;4.498;2022-08-25T10:27:59;27.40;47.50
29539;DHT22;16482;51.046;4.498;2022-08-25T10:30:58;27.40;47.60
29539;DHT22;16482;51.046;4.498;2022-08-25T10:36:22;27.40;47.70
29539;DHT22;16482;51.046;4.498;2022-08-25T10:38:56;27.40;47.80
29539;DHT22;16482;51.046;4.498;2022-08-25T10:56:19;27.40;47.90
29539;DHT22;16482;51.046;4.498;2022-08-25T10:59:07;27.40;48.00
29539;DHT22;16482;51.046;4.498;2022-08-25T11:01:39;27.40;47.80
29539;DHT22;16482;51.046;4.498;2022-08-25T11:09:33;27.40;47.40
29539;DHT22;16482;51.046;4.498;2022-08-25T11:12:08;27.50;47.80
29539;DHT22;16482;51.046;4.498;2022-08-25T11:20:56;27.40;47.20
29539;DHT22;16482;51.046;4.498;2022-08-25T11:23:45;27.40;47.20
29539;DHT22;16482;51.046;4.498;2022-08-25T11:26:12;27.40;47.50
29539;DHT22;16482;51.046;4.498;2022-08-25T11:28:59;27.50;47.40
29539;DHT22;16482;51.046;4.498;2022-08-25T11:31:27;27.50;47.00
29539;DHT22;16482;51.046;4.498;2022-08-25T11:33:57;27.40;47.00
29539;DHT22;16482;51.046;4.498;2022-08-25T11:36:34;27.50;47.00
29539;DHT22;16482;51.046;4.498;2022-08-25T11:39:20;27.50;46.80
29539;DHT22;16482;51.046;4.498;2022-08-25T11:42:26;27.50;47.10
29539;DHT22;16482;51.046;4.498;2022-08-25T11:51:01;27.50;46.50
29539;DHT22;16482;51.046;4.498;2022-08-25T11:53:31;27.50;46.30
29539;DHT22;16482;51.046;4.498;2022-08-25T11:56:01;27.50;46.30
29539;DHT22;16482;51.046;4.498;2022-08-25T11:58:33;27.50;46.50
29539;DHT22;16482;51.046;4.498;2022-08-25T12:01:03;27.50;46.20
29539;DHT22;16482;51.046;4.498;2022-08-25T12:06:30;27.50;45.80
29539;DHT22;16482;51.046;4.498;2022-08-25T12:11:54;27.50;45.80
29539;DHT22;16482;51.046;4.498;2022-08-25T12:27:30;27.60;45.10
29539;DHT22;16482;51.046;4.498;2022-08-25T12:33:10;27.60;45.00
29539;DHT22;16482;51.046;4.498;2022-08-25T12:38:30;27.60;44.60
29539;DHT22;16482;51.046;4.498;2022-08-25T12:43:35;27.60;44.20
29539;DHT22;16482;51.046;4.498;2022-08-25T12:48:57;27.60;44.50
29539;DHT22;16482;51.046;4.498;2022-08-25T12:51:47;27.70;44.50
29539;DHT22;16482;51.046;4.498;2022-08-25T12:57:19;27.60;44.30
29539;DHT22;16482;51.046;4.498;2022-08-25T12:59:52;27.60;44.00
29539;DHT22;16482;51.046;4.498;2022-08-25T13:10:55;27.60;44.10
29539;DHT22;16482;51.046;4.498;2022-08-25T13:16:15;27.70;44.20
29539;DHT22;16482;51.046;4.498;2022-08-25T13:18:42;27.70;44.20
29539;DHT22;16482;51.046;4.498;2022-08-25T13:21:37;27.60;44.30
29539;DHT22;16482;51.046;4.498;2022-08-25T13:24:25;27.70;44.10
29539;DHT22;16482;51.046;4.498;2022-08-25T13:26:56;27.70;44.00
29539;DHT22;16482;51.046;4.498;2022-08-25T13:29:29;27.70;44.10
29539;DHT22;16482;51.046;4.498;2022-08-25T13:32:00;27.70;43.90
29539;DHT22;16482;51.046;4.498;2022-08-25T13:34:40;27.70;44.20
29539;DHT22;16482;51.046;4.498;2022-08-25T13:37:09;27.60;44.30
29539;DHT22;16482;51.046;4.498;2022-08-25T13:40:22;27.60;44.20
29539;DHT22;16482;51.046;4.498;2022-08-25T13:42:51;27.60;44.20
29539;DHT22;16482;51.046;4.498;2022-08-25T13:45:21;27.60;44.20
29539;DHT22;16482;51.046;4.498;2022-08-25T13:47:48;27.60;44.40
29539;DHT22;16482;51.046;4.498;2022-08-25T13:50:16;27.60;44.30
29539;DHT22;16482;51.046;4.498;2022-08-25T13:52:47;27.60;44.00
29539;DHT22;16482;51.046;4.498;2022-08-25T13:55:20;27.70;44.10
29539;DHT22;16482;51.046;4.498;2022-08-25T13:57:46;27.70;43.80
29539;DHT22;16482;51.046;4.498;2022-08-25T14:00:13;27.60;43.70
29539;DHT22;16482;51.046;4.498;2022-08-25T14:02:51;27.70;43.80
29539;DHT22;16482;51.046;4.498;2022-08-25T14:05:41;27.70;43.60
29539;DHT22;16482;51.046;4.498;2022-08-25T14:08:36;27.70;43.60
29539;DHT22;16482;51.046;4.498;2022-08-25T14:11:28;27.70;43.70
29539;DHT22;16482;51.046;4.498;2022-08-25T14:14:05;27.60;43.80
29539;DHT22;16482;51.046;4.498;2022-08-25T14:16:50;27.60;44.00
29539;DHT22;16482;51.046;4.498;2022-08-25T14:19:20;27.60;44.10
29539;DHT22;16482;51.046;4.498;2022-08-25T14:21:47;27.60;44.30
29539;DHT22;16482;51.046;4.498;2022-08-25T14:24:19;27.60;44.40
29539;DHT22;16482;51.046;4.498;2022-08-25T14:26:45;27.60;44.70
29539;DHT22;16482;51.046;4.498;2022-08-25T14:29:12;27.60;44.90
29539;DHT22;16482;51.046;4.498;2022-08-25T14:31:40;27.70;45.00
29539;DHT22;16482;51.046;4.498;2022-08-25T14:34:23;27.70;45.10
29539;DHT22;16482;51.046;4.498;2022-08-25T14:36:51;27.70;45.20
29539;DHT22;16482;51.046;4.498;2022-08-25T14:39:17;27.70;45.50
29539;DHT22;16482;51.046;4.498;2022-08-25T14:41:44;27.70;45.50
29539;DHT22;16482;51.046;4.498;2022-08-25T14:44:11;27.70;45.60
29539;DHT22;16482;51.046;4.498;2022-08-25T14:46:48;27.70;45.60
29539;DHT22;16482;51.046;4.498;2022-08-25T14:49:19;27.70;45.70
29539;DHT22;16482;51.046;4.498;2022-08-25T14:51:46;27.70;45.80
29539;DHT22;16482;51.046;4.498;2022-08-25T14:54:14;27.70;45.90
29539;DHT22;16482;51.046;4.498;2022-08-25T14:56:43;27.70;45.90
29539;DHT22;16482;51.046;4.498;2022-08-25T14:59:09;27.70;46.00
29539;DHT22;16482;51.046;4.498;2022-08-25T15:01:35;27.70;46.10
29539;DHT22;16482;51.046;4.498;2022-08-25T15:04:13;27.70;46.00
29539;DHT22;16482;51.046;4.498;2022-08-25T15:06:40;27.70;46.10
29539;DHT22;16482;51.046;4.498;2022-08-25T15:09:12;27.70;46.20
29539;DHT22;16482;51.046;4.498;2022-08-25T15:11:49;27.70;46.20
29539;DHT22;16482;51.046;4.498;2022-08-25T15:14:17;27.80;46.30
29539;DHT22;16482;51.046;4.498;2022-08-25T15:17:01;27.80;46.30
29539;DHT22;16482;51.046;4.498;2022-08-25T15:19:28;27.80;46.30
29539;DHT22;16482;51.046;4.498;2022-08-25T15:21:54;27.80;46.30
29539;DHT22;16482;51.046;4.498;2022-08-25T15:24:21;27.80;46.40
29539;DHT22;16482;51.046;4.498;2022-08-25T15:26:56;27.80;46.40
29539;DHT22;16482;51.046;4.498;2022-08-25T15:29:23;27.80;46.40
29539;DHT22;16482;51.046;4.498;2022-08-25T15:31:51;27.80;46.50
29539;DHT22;16482;51.046;4.498;2022-08-25T15:34:17;27.80;46.60
29539;DHT22;16482;51.046;4.498;2022-08-25T15:36:44;27.80;46.70
29539;DHT22;16482;51.046;4.498;2022-08-25T15:39:10;27.80;46.80
29539;DHT22;16482;51.046;4.498;2022-08-25T15:41:36;27.80;46.90
29539;DHT22;16482;51.046;4.498;2022-08-25T15:44:03;27.80;47.00
29539;DHT22;16482;51.046;4.498;2022-08-25T15:46:31;27.80;47.10
29539;DHT22;16482;51.046;4.498;2022-08-25T15:48:58;27.80;47.20
29539;DHT22;16482;51.046;4.498;2022-08-25T15:51:27;27.80;47.30
29539;DHT22;16482;51.046;4.498;2022-08-25T15:53:53;27.80;47.50
29539;DHT22;16482;51.046;4.498;2022-08-25T15:56:20;27.90;47.80
29539;DHT22;16482;51.046;4.498;2022-08-25T15:58:46;27.90;47.90
29539;DHT22;16482;51.046;4.498;2022-08-25T16:01:14;27.90;48.10
29539;DHT22;16482;51.046;4.498;2022-08-25T16:03:40;27.90;48.30
29539;DHT22;16482;51.046;4.498;2022-08-25T16:06:06;27.80;48.30
29539;DHT22;16482;51.046;4.498;2022-08-25T16:08:35;27.80;48.50
29539;DHT22;16482;51.046;4.498;2022-08-25T16:11:01;27.80;48.60
29539;DHT22;16482;51.046;4.498;2022-08-25T16:13:27;27.80;48.70
29539;DHT22;16482;51.046;4.498;2022-08-25T16:15:53;27.80;48.90
29539;DHT22;16482;51.046;4.498;2022-08-25T16:18:21;27.80;48.90
29539;DHT22;16482;51.046;4.498;2022-08-25T16:20:47;27.80;49.10
29539;DHT22;16482;51.046;4.498;2022-08-25T16:23:14;27.80;49.00
29539;DHT22;16482;51.046;4.498;2022-08-25T16:25:42;27.80;49.20
29539;DHT22;16482;51.046;4.498;2022-08-25T16:28:09;27.90;49.40
29539;DHT22;16482;51.046;4.498;2022-08-25T16:30:38;27.90;49.50
29539;DHT22;16482;51.046;4.498;2022-08-25T16:33:09;27.90;49.60
29539;DHT22;16482;51.046;4.498;2022-08-25T16:35:35;27.90;49.90
29539;DHT22;16482;51.046;4.498;2022-08-25T16:38:01;27.90;50.00
29539;DHT22;16482;51.046;4.498;2022-08-25T16:40:28;27.90;50.00
29539;DHT22;16482;51.046;4.498;2022-08-25T16:42:56;27.80;50.10
29539;DHT22;16482;51.046;4.498;2022-08-25T16:45:22;27.90;50.30
29539;DHT22;16482;51.046;4.498;2022-08-25T16:47:48;27.90;50.30
29539;DHT22;16482;51.046;4.498;2022-08-25T16:50:15;27.90;50.60
29539;DHT22;16482;51.046;4.498;2022-08-25T16:52:41;27.90;50.50
29539;DHT22;16482;51.046;4.498;2022-08-25T16:55:27;27.90;50.80
29539;DHT22;16482;51.046;4.498;2022-08-25T16:57:58;27.90;51.00
29539;DHT22;16482;51.046;4.498;2022-08-25T17:00:27;27.90;51.10
29539;DHT22;16482;51.046;4.498;2022-08-25T17:02:58;27.90;51.30
29539;DHT22;16482;51.046;4.498;2022-08-25T17:05:25;27.90;52.00
29539;DHT22;16482;51.046;4.498;2022-08-25T17:07:51;27.90;51.80
29539;DHT22;16482;51.046;4.498;2022-08-25T17:10:41;27.90;52.30
29539;DHT22;16482;51.046;4.498;2022-08-25T17:13:10;27.80;52.30
29539;DHT22;16482;51.046;4.498;2022-08-25T17:15:45;27.80;52.30
29539;DHT22;16482;51.046;4.498;2022-08-25T17:18:14;27.80;52.60
29539;DHT22;16482;51.046;4.498;2022-08-25T17:20:42;27.80;52.80
29539;DHT22;16482;51.046;4.498;2022-08-25T17:23:11;27.80;52.80
29539;DHT22;16482;51.046;4.498;2022-08-25T17:25:40;27.80;53.20
29539;DHT22;16482;51.046;4.498;2022-08-25T17:28:06;27.80;53.20
29539;DHT22;16482;51.046;4.498;2022-08-25T17:30:41;27.80;53.20
29539;DHT22;16482;51.046;4.498;2022-08-25T17:33:07;27.80;53.30
29539;DHT22;16482;51.046;4.498;2022-08-25T17:35:44;27.80;53.60
29539;DHT22;16482;51.046;4.498;2022-08-25T17:38:11;27.80;53.40
29539;DHT22;16482;51.046;4.498;2022-08-25T17:40:39;27.80;53.70